Time;durP1;ratioP1;P1;durP2;ratioP2;P2;SDS_P1;SDS_P2;PMS_P1;PMS_P2;Temp;Humidity;BMP_temperature;BMP_pressure;BME280_temperature;BME280_humidity;BME280_pressure;Samples;Min_cycle;Max_cycle;Signal;HPM_P1;HPM_P2
2024/04/16 00:00:11;;;;;;;0.65;0.40;;;;;;;22.60;28.05;99115.16;4864675;26;20470;-54
2024/04/16 00:02:25;;;;;;;1.05;0.60;;;;;;;22.60;28.11;99105.72;4872476;26;20007;-55
2024/04/16 00:04:35;;;;;;;0.38;0.32;;;;;;;22.60;28.06;99108.59;4866653;26;24740;-55
2024/04/16 00:06:45;;;;;;;0.57;0.50;;;;;;;22.59;28.41;99104.91;4864954;26;20036;-51
2024/04/16 00:08:56;;;;;;;0.57;0.40;;;;;;;22.60;28.01;99108.59;4867513;26;20018;-51
2024/04/16 00:11:06;;;;;;;0.68;0.43;;;;;;;22.57;27.87;99098.75;4871525;26;28094;-54
2024/04/16 00:13:17;;;;;;;0.68;0.50;;;;;;;22.58;28.04;99091.75;4866669;26;20466;-53
2024/04/16 00:15:50;;;;;;;0.90;0.60;;;;;;;22.57;28.03;99084.38;4853801;26;20631;-52
2024/04/16 00:18:01;;;;;;;0.55;0.50;;;;;;;22.57;27.95;99093.00;4866455;26;20022;-55
2024/04/16 00:20:11;;;;;;;1.15;0.60;;;;;;;22.57;28.02;99081.50;4870346;26;20014;-51
2024/04/16 00:22:22;;;;;;;0.98;0.50;;;;;;;22.57;27.94;99092.16;4865391;26;20007;-51
2024/04/16 00:24:32;;;;;;;0.95;0.60;;;;;;;22.56;27.87;99085.63;4882508;26;20336;-55
2024/04/16 00:26:42;;;;;;;0.82;0.60;;;;;;;22.55;27.89;99091.78;4867392;26;24408;-52
2024/04/16 00:28:53;;;;;;;1.10;0.60;;;;;;;22.55;27.80;99089.72;4864472;26;22827;-52
2024/04/16 00:31:03;;;;;;;1.60;0.70;;;;;;;22.55;28.03;99086.03;4866514;26;20052;-54
2024/04/16 00:33:14;;;;;;;1.55;0.77;;;;;;;22.54;28.10;99087.25;4868223;26;20039;-51
2024/04/16 00:35:24;;;;;;;1.38;0.80;;;;;;;22.54;28.12;99079.47;4868516;26;20019;-52
2024/04/16 00:37:34;;;;;;;0.70;0.70;;;;;;;22.53;28.12;99080.72;4852678;26;20140;-56
2024/04/16 00:39:46;;;;;;;0.70;0.70;;;;;;;22.52;27.99;99076.16;4866603;26;20023;-52
2024/04/16 00:41:57;;;;;;;1.00;0.70;;;;;;;22.53;27.75;99082.75;4865495;26;20095;-55
2024/04/16 00:44:07;;;;;;;0.73;0.60;;;;;;;22.52;27.89;99069.59;4866365;26;20457;-54
2024/04/16 00:46:18;;;;;;;1.67;0.80;;;;;;;22.52;27.86;99072.47;4865306;26;20007;-55
2024/04/16 00:48:28;;;;;;;1.02;0.70;;;;;;;22.52;27.93;99073.31;4864285;26;20003;-51
2024/04/16 00:50:39;;;;;;;1.17;0.70;;;;;;;22.52;27.80;99066.72;4867076;26;20058;-51
2024/04/16 00:52:49;;;;;;;1.58;0.70;;;;;;;22.52;27.82;99075.34;4866067;26;20085;-54
2024/04/16 00:54:59;;;;;;;1.13;0.60;;;;;;;22.51;27.79;99065.06;4866562;26;20019;-53
2024/04/16 00:57:10;;;;;;;1.50;0.70;;;;;;;22.50;27.96;99064.22;4866002;26;20080;-54
2024/04/16 00:59:22;;;;;;;1.52;0.80;;;;;;;22.50;27.90;99072.06;4866270;26;20012;-55
2024/04/16 01:01:32;;;;;;;0.82;0.70;;;;;;;22.51;27.56;99070.81;4862879;26;20012;-54
2024/04/16 01:03:43;;;;;;;0.70;0.52;;;;;;;22.50;27.72;99066.31;4864285;26;20020;-55
2024/04/16 01:05:54;;;;;;;1.02;0.70;;;;;;;22.49;27.68;99070.41;4867136;26;20785;-55
2024/04/16 01:08:07;;;;;;;0.77;0.63;;;;;;;22.49;27.66;99076.16;4866262;26;20018;-54
2024/04/16 01:10:17;;;;;;;1.98;0.70;;;;;;;22.49;27.66;99079.84;4863500;26;20016;-53
2024/04/16 01:12:28;;;;;;;1.10;0.60;;;;;;;22.49;27.67;99073.28;4863853;26;20020;-55
2024/04/16 01:14:38;;;;;;;1.55;0.63;;;;;;;22.48;27.48;99077.41;4865439;26;20012;-55
2024/04/16 01:16:49;;;;;;;0.63;0.60;;;;;;;22.48;27.59;99080.28;4867557;26;20578;-52
2024/04/16 01:19:00;;;;;;;1.30;0.70;;;;;;;22.48;27.66;99080.28;4865157;26;20018;-55
2024/04/16 01:21:11;;;;;;;1.25;0.70;;;;;;;22.47;27.51;99079.44;4866219;26;20015;-55
2024/04/16 01:23:21;;;;;;;1.17;0.50;;;;;;;22.46;27.63;99072.06;4865238;26;20467;-54
2024/04/16 01:25:33;;;;;;;1.52;0.57;;;;;;;22.46;27.66;99068.34;4864408;26;20008;-52
2024/04/16 01:27:44;;;;;;;1.55;0.70;;;;;;;22.44;27.70;99068.78;4867048;26;20022;-53
2024/04/16 01:29:54;;;;;;;1.23;0.70;;;;;;;22.45;27.25;99076.19;4864407;26;20509;-52
2024/04/16 01:32:04;;;;;;;1.23;0.60;;;;;;;22.44;27.39;99070.84;4866696;26;20018;-52
2024/04/16 01:34:15;;;;;;;1.02;0.68;;;;;;;22.45;27.31;99069.59;4867113;26;20057;-55
2024/04/16 01:36:25;;;;;;;1.02;0.57;;;;;;;22.43;27.47;99066.31;4866929;26;25743;-55
2024/04/16 01:38:36;;;;;;;2.60;0.65;;;;;;;22.44;27.59;99067.97;4865883;26;20077;-52
2024/04/16 01:40:46;;;;;;;1.38;0.75;;;;;;;22.43;27.12;99060.56;4862651;26;20018;-55
2024/04/16 01:42:57;;;;;;;1.38;0.70;;;;;;;22.41;27.39;99063.03;4865589;26;20020;-54
2024/04/16 01:45:07;;;;;;;0.93;0.60;;;;;;;22.43;27.16;99060.56;4865603;26;20356;-52
2024/04/16 01:47:17;;;;;;;1.30;0.50;;;;;;;22.42;27.43;99058.94;4865295;26;20008;-55
2024/04/16 01:49:28;;;;;;;2.25;0.70;;;;;;;22.42;27.27;99061.81;4865659;26;20019;-54
2024/04/16 01:51:38;;;;;;;1.23;0.60;;;;;;;22.42;27.04;99064.69;4867430;26;21362;-55
2024/04/16 01:53:48;;;;;;;1.65;0.75;;;;;;;22.40;26.94;99061.41;4867359;26;20018;-54
2024/04/16 01:56:00;;;;;;;2.67;0.80;;;;;;;22.41;27.28;99063.03;4867270;26;20017;-52
2024/04/16 01:58:10;;;;;;;1.38;0.80;;;;;;;22.40;26.97;99061.41;4867169;26;20024;-55
2024/04/16 02:00:20;;;;;;;1.02;0.60;;;;;;;22.40;27.25;99058.53;4865644;26;20019;-55
2024/04/16 02:02:34;;;;;;;1.50;0.65;;;;;;;22.39;26.87;99054.03;4866606;26;20011;-55
2024/04/16 02:04:45;;;;;;;1.20;0.55;;;;;;;22.39;27.02;99059.78;4865881;26;20007;-55
2024/04/16 02:06:55;;;;;;;1.35;0.70;;;;;;;22.38;26.97;99056.06;4874083;26;20007;-55
2024/04/16 02:09:05;;;;;;;1.98;0.60;;;;;;;22.37;27.02;99040.06;4865876;26;20639;-55
2024/04/16 02:11:16;;;;;;;1.08;0.70;;;;;;;22.38;27.27;99035.13;4869074;26;20048;-54
2024/04/16 02:13:26;;;;;;;0.70;0.47;;;;;;;22.36;26.91;99044.16;4867595;26;20052;-55
2024/04/16 02:15:37;;;;;;;1.35;0.70;;;;;;;22.37;26.91;99027.75;4865616;26;20364;-53
2024/04/16 02:17:47;;;;;;;0.55;0.50;;;;;;;22.37;26.99;99045.00;4864812;26;20018;-53
2024/04/16 02:19:58;;;;;;;1.35;0.60;;;;;;;22.36;26.83;99035.53;4864882;26;20019;-52
2024/04/16 02:22:08;;;;;;;1.15;0.70;;;;;;;22.35;27.10;99036.78;4869610;26;20000;-55
2024/04/16 02:24:19;;;;;;;0.90;0.50;;;;;;;22.35;26.92;99031.03;4868012;26;20022;-54
2024/04/16 02:26:29;;;;;;;0.50;0.50;;;;;;;22.35;26.85;99024.47;4879033;26;20492;-51
2024/04/16 02:28:41;;;;;;;1.27;0.60;;;;;;;22.35;27.02;99024.47;4867318;26;23473;-56
2024/04/16 02:30:52;;;;;;;1.52;0.60;;;;;;;22.33;26.91;99016.25;4867905;26;20018;-55
2024/04/16 02:33:02;;;;;;;1.27;0.57;;;;;;;22.33;26.63;99013.38;4866910;26;20080;-54
2024/04/16 02:35:13;;;;;;;1.38;0.60;;;;;;;22.33;27.05;99010.50;4866564;26;20055;-51
2024/04/16 02:37:23;;;;;;;2.08;0.70;;;;;;;22.33;26.85;99003.94;4868141;26;20008;-55
2024/04/16 02:39:34;;;;;;;1.02;0.60;;;;;;;22.32;27.03;99000.25;4868217;26;20391;-55
2024/04/16 02:41:44;;;;;;;1.38;0.65;;;;;;;22.32;26.63;98993.69;4868034;26;20004;-55
2024/04/16 02:43:56;;;;;;;1.17;0.60;;;;;;;22.32;26.98;98990.81;4868415;26;20160;-54
2024/04/16 02:46:06;;;;;;;1.48;0.50;;;;;;;22.31;26.60;98994.94;4865706;26;20651;-53
2024/04/16 02:48:16;;;;;;;1.23;0.52;;;;;;;22.31;26.54;98989.19;4866860;26;20023;-54
2024/04/16 02:50:28;;;;;;;0.70;0.60;;;;;;;22.29;26.71;98980.97;4866731;26;20007;-52
2024/04/16 02:52:38;;;;;;;0.88;0.50;;;;;;;22.31;26.74;98989.19;4883833;26;20084;-55
2024/04/16 02:54:49;;;;;;;0.52;0.50;;;;;;;22.30;26.85;98987.53;4867650;26;20018;-55
2024/04/16 02:56:59;;;;;;;1.10;0.47;;;;;;;22.30;26.61;98987.53;4868817;26;20008;-54
2024/04/16 02:59:10;;;;;;;1.70;0.70;;;;;;;22.28;26.91;98982.19;4871906;26;20007;-55
2024/04/16 03:01:20;;;;;;;0.85;0.45;;;;;;;22.28;26.71;98982.19;4883105;26;20011;-54
2024/04/16 03:03:33;;;;;;;1.13;0.60;;;;;;;22.28;26.62;98979.31;4868492;26;20007;-53
2024/04/16 03:05:43;;;;;;;1.23;0.43;;;;;;;22.27;26.57;98971.13;4868327;26;20545;-55
2024/04/16 03:07:53;;;;;;;1.13;0.60;;;;;;;22.28;26.59;98975.66;4870684;26;24462;-55
2024/04/16 03:10:05;;;;;;;1.90;0.65;;;;;;;22.26;26.55;98976.06;4867568;26;20481;-55
2024/04/16 03:12:16;;;;;;;1.38;0.50;;;;;;;22.26;26.38;98972.38;4866034;26;20011;-54
2024/04/16 03:14:26;;;;;;;1.25;0.40;;;;;;;22.25;26.64;98970.72;4866914;26;20452;-53
2024/04/16 03:16:36;;;;;;;1.08;0.50;;;;;;;22.25;26.50;98962.13;4867570;26;20610;-53
2024/04/16 03:18:47;;;;;;;2.13;0.60;;;;;;;22.25;26.58;98962.91;4867085;26;26011;-53
2024/04/16 03:21:00;;;;;;;0.70;0.43;;;;;;;22.26;26.47;98969.50;4868745;26;20020;-54
2024/04/16 03:23:10;;;;;;;1.08;0.50;;;;;;;22.25;26.24;98962.13;4868131;26;20150;-54
2024/04/16 03:25:23;;;;;;;1.38;0.60;;;;;;;22.24;26.47;98964.16;4866642;26;20081;-52
2024/04/16 03:27:34;;;;;;;1.05;0.55;;;;;;;22.23;26.27;98964.56;4871784;26;20019;-55
2024/04/16 03:29:44;;;;;;;1.00;0.40;;;;;;;22.23;26.46;98958.84;4866741;26;20017;-51
2024/04/16 03:31:54;;;;;;;1.08;0.60;;;;;;;22.22;25.98;98955.13;4869716;26;20540;-51
2024/04/16 03:34:05;;;;;;;0.52;0.45;;;;;;;22.23;26.38;98955.97;4883353;26;20490;-55
2024/04/16 03:36:16;;;;;;;1.08;0.50;;;;;;;22.21;26.44;98960.03;4868174;26;20019;-51
2024/04/16 03:38:26;;;;;;;0.55;0.40;;;;;;;22.21;26.34;98962.13;4868678;26;20021;-54
2024/04/16 03:40:37;;;;;;;0.85;0.50;;;;;;;22.21;26.49;98956.38;4866399;26;20004;-54
2024/04/16 03:42:47;;;;;;;1.40;0.70;;;;;;;22.21;26.16;98962.13;4865117;26;20007;-53
2024/04/16 03:44:58;;;;;;;1.05;0.50;;;;;;;22.20;26.43;98967.03;4871260;26;20121;-52
2024/04/16 03:47:08;;;;;;;1.35;0.50;;;;;;;22.20;26.24;98960.47;4866140;26;20003;-53
2024/04/16 03:49:18;;;;;;;1.17;0.70;;;;;;;22.21;26.47;98967.88;4868118;26;20035;-55
2024/04/16 03:51:29;;;;;;;1.20;0.50;;;;;;;22.19;26.50;98976.91;4865763;26;21027;-53
2024/04/16 03:53:39;;;;;;;1.00;0.60;;;;;;;22.18;26.35;98958.00;4869473;26;22932;-54
2024/04/16 03:55:50;;;;;;;1.85;0.70;;;;;;;22.19;26.37;98962.53;4865832;26;20006;-55
2024/04/16 03:58:00;;;;;;;1.00;0.57;;;;;;;22.18;26.28;98969.50;4865858;26;20040;-52
2024/04/16 04:02:40;;;;;;;0.68;0.50;;;;;;;22.17;26.51;98967.88;4868993;26;20083;-53
2024/04/16 04:04:51;;;;;;;0.70;0.55;;;;;;;22.18;26.60;98971.59;4868230;26;20008;-55
2024/04/16 04:07:01;;;;;;;1.30;0.80;;;;;;;22.17;26.83;98961.31;4864095;26;20015;-54
2024/04/16 04:09:11;;;;;;;1.50;0.80;;;;;;;22.16;26.91;98969.13;4865908;26;20074;-53
2024/04/16 04:11:22;;;;;;;1.25;0.65;;;;;;;22.16;26.61;98968.31;4864822;26;20008;-55
2024/04/16 04:13:33;;;;;;;1.52;0.70;;;;;;;22.15;26.79;98958.06;4867722;26;20022;-53
2024/04/16 04:15:44;;;;;;;0.98;0.70;;;;;;;22.14;26.57;98974.47;4868562;26;20012;-54
2024/04/16 04:17:54;;;;;;;1.67;0.68;;;;;;;22.14;26.55;98968.72;4865752;26;20353;-55
2024/04/16 04:20:05;;;;;;;1.60;0.80;;;;;;;22.14;26.81;98974.47;4872380;26;20007;-52
2024/04/16 04:22:15;;;;;;;1.50;0.80;;;;;;;22.14;26.75;98973.63;4867878;26;20022;-54
2024/04/16 04:24:26;;;;;;;0.85;0.65;;;;;;;22.12;26.98;98968.31;4866969;26;20077;-53
2024/04/16 04:26:36;;;;;;;1.45;0.80;;;;;;;22.13;26.96;98960.50;4865682;26;20015;-54
2024/04/16 04:28:46;;;;;;;0.88;0.68;;;;;;;22.13;27.06;98972.84;4866136;26;20008;-52
2024/04/16 04:31:13;;;;;;;1.98;0.77;;;;;;;22.12;26.77;98964.59;4867892;26;20046;-52
2024/04/16 04:33:24;;;;;;;0.65;0.60;;;;;;;22.11;26.98;98958.06;4865602;26;20015;-52
2024/04/16 04:35:35;;;;;;;1.65;0.85;;;;;;;22.11;26.92;98960.94;4867521;26;20023;-55
2024/04/16 04:37:45;;;;;;;1.33;0.70;;;;;;;22.11;26.69;98963.81;4865341;26;26642;-55
2024/04/16 04:39:55;;;;;;;0.80;0.60;;;;;;;22.12;26.77;98964.59;4863251;26;20472;-54
2024/04/16 04:42:06;;;;;;;0.90;0.63;;;;;;;22.10;26.73;98959.28;4866405;26;20022;-55
2024/04/16 04:44:16;;;;;;;1.48;0.60;;;;;;;22.10;27.12;98950.66;4882120;26;20049;-52
2024/04/16 04:46:27;;;;;;;0.88;0.70;;;;;;;22.08;26.89;98947.41;4866927;26;20007;-51
2024/04/16 04:48:38;;;;;;;1.45;0.50;;;;;;;22.09;26.82;98957.66;4865199;26;20004;-55
2024/04/16 04:50:48;;;;;;;0.75;0.68;;;;;;;22.09;26.72;98960.53;4866877;26;20011;-52
2024/04/16 04:53:00;;;;;;;0.88;0.50;;;;;;;22.08;26.97;98958.91;4866409;26;27521;-53
2024/04/16 04:55:11;;;;;;;1.15;0.70;;;;;;;22.06;27.32;98947.00;4864260;26;20000;-55
2024/04/16 04:57:21;;;;;;;0.90;0.65;;;;;;;22.07;27.30;98953.56;4866062;26;20015;-51
2024/04/16 04:59:31;;;;;;;0.88;0.50;;;;;;;22.06;27.39;98949.88;4865905;26;20533;-52
2024/04/16 05:01:42;;;;;;;0.73;0.50;;;;;;;22.06;27.04;98949.88;4866872;26;21332;-55
2024/04/16 05:03:52;;;;;;;0.70;0.40;;;;;;;22.06;27.31;98941.25;4865915;26;20023;-55
2024/04/16 05:06:03;;;;;;;0.68;0.50;;;;;;;22.05;27.07;98942.50;4865456;26;20007;-54
2024/04/16 05:08:14;;;;;;;0.50;0.40;;;;;;;22.05;26.91;98936.75;4865206;26;20079;-51
2024/04/16 05:10:24;;;;;;;0.50;0.43;;;;;;;22.06;27.14;98944.13;4865633;26;20015;-54
2024/04/16 05:12:35;;;;;;;0.52;0.50;;;;;;;22.04;27.37;98932.22;4864255;26;20040;-52
2024/04/16 05:14:45;;;;;;;0.40;0.40;;;;;;;22.04;27.11;98932.22;4865531;26;20015;-54
2024/04/16 05:16:55;;;;;;;0.68;0.50;;;;;;;22.04;27.12;98920.72;4867223;26;20027;-54
2024/04/16 05:19:06;;;;;;;0.47;0.40;;;;;;;22.04;27.03;98917.84;4866307;26;20466;-55
2024/04/16 05:21:16;;;;;;;0.85;0.50;;;;;;;22.03;27.37;98933.47;4868818;26;20592;-54
2024/04/16 05:23:26;;;;;;;1.13;0.57;;;;;;;22.02;27.21;98931.81;4868063;26;20645;-53
2024/04/16 05:25:37;;;;;;;0.75;0.50;;;;;;;22.02;27.30;98926.06;4871924;26;20348;-53
2024/04/16 05:27:48;;;;;;;0.77;0.57;;;;;;;22.02;27.30;98931.81;4869881;26;20471;-50
2024/04/16 05:29:59;;;;;;;0.47;0.45;;;;;;;22.02;27.45;98926.06;4869779;26;20008;-54
2024/04/16 05:32:11;;;;;;;1.17;0.40;;;;;;;22.01;27.58;98924.44;4870556;26;20359;-55
2024/04/16 05:34:21;;;;;;;0.95;0.50;;;;;;;22.01;27.64;98921.56;4871278;26;20998;-54
2024/04/16 05:36:32;;;;;;;0.68;0.50;;;;;;;22.01;27.79;98923.59;4869122;26;20019;-52
2024/04/16 05:38:42;;;;;;;1.27;0.70;;;;;;;22.00;27.93;98931.44;4868832;26;20353;-55
2024/04/16 05:40:52;;;;;;;0.98;0.60;;;;;;;22.00;27.61;98925.69;4868163;26;20023;-52
2024/04/16 05:43:03;;;;;;;0.68;0.40;;;;;;;22.00;27.57;98921.97;4867471;26;20451;-51
2024/04/16 05:45:16;;;;;;;0.75;0.50;;;;;;;21.99;27.52;98928.97;4870959;26;20023;-52
2024/04/16 05:47:26;;;;;;;1.08;0.70;;;;;;;22.00;27.73;98930.59;4866631;26;20922;-51
2024/04/16 05:49:37;;;;;;;0.75;0.50;;;;;;;21.98;27.56;98925.28;4867444;26;20008;-52
2024/04/16 05:51:48;;;;;;;0.40;0.40;;;;;;;21.97;27.27;98925.69;4873789;26;20003;-51
2024/04/16 05:54:00;;;;;;;0.73;0.50;;;;;;;21.98;27.71;98928.16;4870947;26;20008;-55
2024/04/16 05:56:10;;;;;;;0.77;0.50;;;;;;;21.97;27.49;98934.31;4868275;26;20989;-52
2024/04/16 05:58:22;;;;;;;0.80;0.50;;;;;;;21.97;27.52;98922.81;4868872;26;20008;-54
2024/04/16 06:00:35;;;;;;;0.60;0.50;;;;;;;21.97;27.81;98928.56;4867860;26;21003;-55
2024/04/16 06:02:46;;;;;;;0.57;0.55;;;;;;;21.96;27.79;98932.69;4868797;26;20011;-51
2024/04/16 06:04:56;;;;;;;0.50;0.40;;;;;;;21.96;27.57;98932.69;4869082;26;20333;-51
2024/04/16 06:07:06;;;;;;;1.05;0.73;;;;;;;21.95;27.83;98928.97;4864957;26;20011;-51
2024/04/16 06:09:17;;;;;;;0.52;0.50;;;;;;;21.95;27.90;98937.59;4866137;26;20026;-51
2024/04/16 06:11:29;;;;;;;0.98;0.73;;;;;;;21.95;27.92;98919.53;4883300;26;20003;-53
2024/04/16 06:13:40;;;;;;;0.60;0.40;;;;;;;21.94;27.93;98924.47;4870713;26;20010;-55
2024/04/16 06:15:50;;;;;;;0.50;0.45;;;;;;;21.94;27.84;98923.66;4871340;26;20022;-51
2024/04/16 06:18:01;;;;;;;0.73;0.50;;;;;;;21.94;28.06;98920.78;4872470;26;20011;-55
2024/04/16 06:20:11;;;;;;;0.63;0.60;;;;;;;21.93;28.10;98916.25;4866491;26;20012;-55
2024/04/16 06:22:22;;;;;;;1.17;0.85;;;;;;;21.94;28.03;98912.16;4867403;26;20011;-55
2024/04/16 06:24:32;;;;;;;0.90;0.68;;;;;;;21.93;28.25;98919.13;4869822;26;20012;-55
2024/04/16 06:26:43;;;;;;;0.60;0.60;;;;;;;21.93;28.27;98916.25;4867206;26;20008;-53
2024/04/16 06:28:53;;;;;;;0.52;0.50;;;;;;;21.93;28.21;98916.25;4870003;26;20019;-54
2024/04/16 06:31:03;;;;;;;1.45;0.90;;;;;;;21.93;28.37;98910.50;4866547;26;20007;-52
2024/04/16 06:33:15;;;;;;;2.60;1.30;;;;;;;21.92;27.75;98903.97;4866606;26;20007;-52
2024/04/16 06:35:25;;;;;;;2.97;1.70;;;;;;;21.92;28.04;98901.09;4865990;26;20019;-52
2024/04/16 06:37:36;;;;;;;1.02;0.70;;;;;;;21.92;28.17;98906.84;4868763;26;20016;-55
2024/04/16 06:39:46;;;;;;;0.80;0.60;;;;;;;21.92;28.37;98903.13;4869910;26;20004;-51
2024/04/16 06:42:00;;;;;;;1.00;0.50;;;;;;;21.91;28.03;98895.75;4865693;26;20418;-55
2024/04/16 06:44:11;;;;;;;1.05;0.50;;;;;;;21.91;28.12;98890.03;4869029;26;20750;-55
2024/04/16 06:46:21;;;;;;;0.68;0.40;;;;;;;21.92;28.29;98885.91;4868766;26;20047;-53
2024/04/16 06:48:32;;;;;;;0.77;0.55;;;;;;;21.92;28.54;98888.78;4867898;26;20024;-53
2024/04/16 06:50:46;;;;;;;0.50;0.50;;;;;;;21.91;28.34;98881.41;4871505;26;20007;-56
2024/04/16 06:52:56;;;;;;;0.75;0.60;;;;;;;21.90;28.67;98874.84;4866529;26;20018;-54
2024/04/16 06:55:07;;;;;;;1.33;0.60;;;;;;;21.90;28.84;98871.97;4866585;26;20019;-53
2024/04/16 06:57:17;;;;;;;0.70;0.60;;;;;;;21.89;29.05;98864.59;4867581;26;20012;-55
2024/04/16 06:59:27;;;;;;;0.70;0.63;;;;;;;21.90;29.15;98871.97;4867101;26;20026;-52
2024/04/16 07:01:38;;;;;;;0.80;0.63;;;;;;;21.90;29.05;98865.38;4869895;26;20004;-52
2024/04/16 07:03:48;;;;;;;1.48;0.63;;;;;;;21.90;28.97;98863.34;4868334;26;20008;-54
2024/04/16 07:05:59;;;;;;;0.63;0.60;;;;;;;21.89;29.07;98864.59;4864339;26;20012;-51
2024/04/16 07:08:09;;;;;;;0.70;0.70;;;;;;;21.89;28.84;98853.09;4867964;26;20470;-55
2024/04/16 07:10:20;;;;;;;0.70;0.70;;;;;;;21.89;28.83;98858.00;4866531;26;20348;-53
2024/04/16 07:12:30;;;;;;;0.90;0.80;;;;;;;21.88;29.07;98853.50;4867537;26;20018;-56
2024/04/16 07:14:40;;;;;;;1.73;0.85;;;;;;;21.87;28.91;98852.69;4866761;26;20021;-54
2024/04/16 07:16:51;;;;;;;0.73;0.70;;;;;;;21.86;29.11;98841.63;4866749;26;20000;-52
2024/04/16 07:19:01;;;;;;;1.48;0.70;;;;;;;21.85;30.33;98840.78;4867097;26;20011;-55
2024/04/16 07:21:12;;;;;;;1.40;0.90;;;;;;;21.84;29.18;98838.34;4867376;26;20024;-56
2024/04/16 07:23:22;;;;;;;0.88;0.80;;;;;;;21.85;28.96;98837.91;4866472;26;20351;-54
2024/04/16 07:25:32;;;;;;;1.40;0.80;;;;;;;21.85;28.76;98834.25;4865565;26;20016;-55
2024/04/16 07:27:44;;;;;;;1.20;0.70;;;;;;;21.83;28.71;98826.06;4865987;26;20023;-55
2024/04/16 07:29:54;;;;;;;1.10;0.75;;;;;;;21.84;29.04;98816.19;4866268;26;20011;-53
2024/04/16 07:32:04;;;;;;;1.13;0.70;;;;;;;21.84;28.57;98821.94;4868307;26;20062;-55
2024/04/16 07:34:15;;;;;;;0.95;0.70;;;;;;;21.83;29.01;98811.69;4865321;26;20008;-52
2024/04/16 07:36:25;;;;;;;0.80;0.68;;;;;;;21.83;29.01;98811.69;4868417;26;20010;-55
2024/04/16 07:38:36;;;;;;;1.17;0.82;;;;;;;21.83;29.00;98803.06;4883408;26;20026;-54
2024/04/16 07:40:56;;;;;;;1.35;0.80;;;;;;;21.84;28.79;98803.88;4866997;26;20011;-55
2024/04/16 07:43:06;;;;;;;1.52;1.08;;;;;;;21.84;29.15;98798.13;4863573;26;20008;-52
2024/04/16 07:45:16;;;;;;;1.63;1.15;;;;;;;21.83;29.18;98799.38;4866122;26;20004;-51
2024/04/16 07:47:27;;;;;;;0.82;0.82;;;;;;;21.83;29.07;98797.34;4868998;26;20016;-52
2024/04/16 07:49:37;;;;;;;0.90;0.90;;;;;;;21.83;29.61;98791.59;4866540;26;20003;-51
2024/04/16 07:51:48;;;;;;;0.85;0.70;;;;;;;21.84;29.75;98786.63;4867558;26;20023;-52
2024/04/16 07:53:58;;;;;;;0.90;0.80;;;;;;;21.84;29.65;98796.09;4865753;26;20023;-54
2024/04/16 07:56:08;;;;;;;0.85;0.77;;;;;;;21.85;29.61;98783.34;4869041;26;20017;-53
2024/04/16 07:58:19;;;;;;;1.67;0.90;;;;;;;21.85;29.75;98786.22;4866658;26;20098;-54
2024/04/16 08:01:14;;;;;;;1.20;0.93;;;;;;;21.86;29.50;98785.00;4865834;26;21100;-53
2024/04/16 08:03:24;;;;;;;1.02;0.90;;;;;;;21.87;29.70;98780.06;4872649;26;20015;-55
2024/04/16 08:05:38;;;;;;;0.85;0.80;;;;;;;21.86;29.74;98782.13;4868392;26;20036;-53
2024/04/16 08:07:49;;;;;;;0.75;0.70;;;;;;;21.87;29.59;98780.06;4866068;26;20026;-56
2024/04/16 08:10:01;;;;;;;1.40;0.80;;;;;;;21.87;29.59;98780.06;4863389;26;20015;-52
2024/04/16 08:12:11;;;;;;;0.70;0.60;;;;;;;21.85;29.87;98789.09;4867503;26;20596;-52
2024/04/16 08:14:22;;;;;;;0.98;0.80;;;;;;;21.84;29.69;98778.84;4866090;26;23016;-56
2024/04/16 08:16:32;;;;;;;0.98;0.88;;;;;;;21.85;30.08;98783.34;4868537;26;20007;-51
2024/04/16 08:18:43;;;;;;;1.10;1.00;;;;;;;21.86;30.14;98775.56;4866239;26;20020;-54
2024/04/16 08:20:53;;;;;;;0.80;0.80;;;;;;;21.86;30.20;98770.66;4866569;26;25335;-54
2024/04/16 08:23:03;;;;;;;1.30;1.02;;;;;;;21.87;30.46;98774.31;4865696;26;20483;-52
2024/04/16 08:25:14;;;;;;;0.50;0.50;;;;;;;21.85;29.93;98765.31;4868079;26;20008;-51
2024/04/16 08:27:24;;;;;;;0.50;0.50;;;;;;;21.86;30.16;98755.44;4893227;26;20527;-54
2024/04/16 08:29:35;;;;;;;0.40;0.40;;;;;;;21.85;29.80;98757.50;4865545;26;20019;-55
2024/04/16 08:31:45;;;;;;;0.40;0.40;;;;;;;21.86;29.68;98750.53;4866906;26;20003;-54
2024/04/16 08:33:58;;;;;;;0.47;0.32;;;;;;;21.86;29.59;98744.78;4866624;26;20363;-53
2024/04/16 08:36:09;;;;;;;0.45;0.30;;;;;;;21.86;29.60;98732.47;4867803;26;20538;-56
2024/04/16 08:38:19;;;;;;;0.38;0.22;;;;;;;21.86;29.85;98727.56;4883228;26;20062;-56
2024/04/16 08:40:30;;;;;;;0.20;0.20;;;;;;;21.86;29.82;98727.56;4866267;26;20029;-52
2024/04/16 08:42:41;;;;;;;0.30;0.30;;;;;;;21.86;29.85;98724.69;4864882;26;20023;-53
2024/04/16 08:44:53;;;;;;;0.20;0.20;;;;;;;21.86;30.22;98718.94;4869464;26;20016;-55
2024/04/16 08:47:05;;;;;;;0.30;0.30;;;;;;;21.86;30.09;98718.94;4867534;26;20011;-51
2024/04/16 08:49:17;;;;;;;0.55;0.28;;;;;;;21.87;30.53;98716.88;4866747;26;20007;-54
2024/04/16 08:51:29;;;;;;;0.52;0.30;;;;;;;21.86;30.36;98710.31;4868172;26;20000;-51
2024/04/16 08:53:42;;;;;;;0.17;0.17;;;;;;;21.87;30.55;98711.94;4863570;26;20857;-51
2024/04/16 08:55:52;;;;;;;0.20;0.20;;;;;;;21.87;30.48;98711.13;4867996;26;20026;-56
2024/04/16 08:58:03;;;;;;;0.10;0.10;;;;;;;21.88;30.16;98718.53;4865116;26;20003;-55
2024/04/16 09:00:14;;;;;;;0.28;0.20;;;;;;;21.88;30.51;98730.00;4882255;26;21026;-52
2024/04/16 09:02:26;;;;;;;0.17;0.17;;;;;;;21.88;30.66;98716.44;4864270;26;20026;-52
2024/04/16 09:04:37;;;;;;;0.10;0.10;;;;;;;21.89;30.13;98720.16;4864207;26;20050;-55
2024/04/16 09:06:48;;;;;;;0.10;0.10;;;;;;;21.88;30.28;98725.06;4867747;26;20643;-53
2024/04/16 09:09:01;;;;;;;0.30;0.30;;;;;;;21.89;30.06;98725.88;4883365;26;20022;-52
2024/04/16 09:11:12;;;;;;;0.30;0.30;;;;;;;21.89;30.01;98737.38;4868244;26;20046;-53
2024/04/16 09:13:22;;;;;;;0.40;0.40;;;;;;;21.89;29.97;98726.72;4863771;26;20026;-56
2024/04/16 09:15:37;;;;;;;0.40;0.40;;;;;;;21.89;29.94;98731.63;4865198;26;20019;-53
2024/04/16 09:17:52;;;;;;;0.20;0.20;;;;;;;21.90;29.97;98731.22;4868003;26;21550;-52
2024/04/16 09:20:02;;;;;;;0.55;0.30;;;;;;;21.90;29.97;98734.09;4864914;26;20072;-55
2024/04/16 09:22:13;;;;;;;0.00;0.00;;;;;;;21.91;29.85;98741.44;4865295;26;20055;-55
2024/04/16 09:24:23;;;;;;;0.20;0.20;;;;;;;21.92;29.76;98748.84;4863745;26;20011;-53
2024/04/16 09:26:34;;;;;;;0.10;0.10;;;;;;;21.91;29.97;98734.91;4864942;26;20474;-56
2024/04/16 09:28:48;;;;;;;0.20;0.20;;;;;;;21.91;29.65;98726.28;4866050;26;20011;-52
2024/04/16 09:30:58;;;;;;;0.10;0.10;;;;;;;21.92;29.95;98731.63;4867050;26;20570;-55
2024/04/16 09:33:09;;;;;;;0.20;0.10;;;;;;;21.93;29.83;98726.66;4869243;26;20008;-55
2024/04/16 09:35:28;;;;;;;0.10;0.10;;;;;;;21.92;29.89;98731.63;4866076;26;20022;-55
2024/04/16 09:37:38;;;;;;;0.10;0.10;;;;;;;21.93;30.00;98730.38;4864497;26;20015;-54
2024/04/16 09:39:52;;;;;;;0.10;0.10;;;;;;;21.92;29.95;98725.88;4863715;26;20007;-54
2024/04/16 09:42:04;;;;;;;0.10;0.10;;;;;;;21.92;30.04;98719.28;4863672;26;20016;-53
2024/04/16 09:44:15;;;;;;;0.10;0.10;;;;;;;21.94;30.30;98722.56;4864542;26;20025;-55
2024/04/16 09:46:28;;;;;;;0.10;0.10;;;;;;;21.93;29.97;98736.09;4880845;26;20007;-56
2024/04/16 09:48:41;;;;;;;0.10;0.10;;;;;;;21.94;30.27;98729.16;4865342;26;20017;-51
2024/04/16 09:50:52;;;;;;;0.20;0.20;;;;;;;21.94;30.22;98723.41;4864105;26;20012;-56
2024/04/16 09:53:06;;;;;;;0.10;0.10;;;;;;;21.94;30.52;98713.97;4862882;26;20008;-52
2024/04/16 09:55:21;;;;;;;0.40;0.20;;;;;;;21.94;30.38;98711.09;4863202;26;20022;-51
2024/04/16 09:57:31;;;;;;;0.10;0.10;;;;;;;21.94;30.22;98706.16;4866564;26;20028;-53
2024/04/16 09:59:42;;;;;;;0.10;0.10;;;;;;;21.95;30.43;98713.53;4866787;26;20388;-55
2024/04/16 10:01:53;;;;;;;0.15;0.15;;;;;;;21.96;30.45;98703.66;4862644;26;20008;-52
2024/04/16 10:04:04;;;;;;;0.20;0.20;;;;;;;21.96;30.79;98709.41;4862917;26;20083;-52
2024/04/16 10:06:14;;;;;;;0.20;0.20;;;;;;;21.97;30.62;98696.69;4868245;26;20015;-55
2024/04/16 10:08:26;;;;;;;0.20;0.20;;;;;;;21.96;31.04;98703.66;4867883;26;20048;-52
2024/04/16 10:10:36;;;;;;;0.65;0.10;;;;;;;21.97;31.26;98699.56;4866483;26;20069;-55
2024/04/16 10:12:47;;;;;;;0.10;0.10;;;;;;;21.98;30.82;98689.72;4866712;26;20470;-55
2024/04/16 10:14:57;;;;;;;0.10;0.10;;;;;;;21.98;31.31;98691.75;4869910;26;20013;-53
2024/04/16 10:17:12;;;;;;;0.28;0.17;;;;;;;21.99;31.01;98694.19;4866837;26;20004;-52
2024/04/16 10:19:22;;;;;;;0.32;0.32;;;;;;;21.99;31.17;98693.41;4870505;26;20022;-56